LFSG/EPL METAR and TAF weather

Enter ICAO airport designator
Station Type Date Time Source
LFSG METAR 2022/11/27 08:30 UTC NOAA

LFSG 270830Z AUTO 18005KT 140V210 9999 FEW007 OVC130 04/03 Q1024


Station Type Date Time Source
LFSG Decoded METAR 2022/11/27 08:30 UTC NOAA

Station name not available
Nov 27, 2022 - 03:30 AM EST / 2022.11.27 0830 UTC
Wind: from the S (180 degrees) at 6 MPH (5 KT) (direction variable):0
Visibility: greater than 7 mile(s):0
Sky conditions: overcast
Temperature: 39 F (4 C)
Dew Point: 37 F (3 C)
Relative Humidity: 93%
Pressure (altimeter): 30.24 in. Hg (1024 hPa)
ob: LFSG 270830Z AUTO 18005KT 140V210 9999 FEW007 OVC130 04/03 Q1024
cycle: 8

Station Type Date Time Source
LFSG TAF UTC NOAA

Error!

Example: see airport list